Naomi, South Dakota
Current Conditions -  °F | °C
As of 10:56 AM on Sunday 23 Nov 2014 (Local Time) from KFSD Reporting Station
Light Rain Light Rain  
Wind Chill: 31°   Ceiling: 4100
Heat Index: 39°   Visibility: 10mi
Dew Point: 36°   Wind: 15mph
Humidity: 89%   Direction: 310°NW
Pressure: 29.55"   Gusts: NA
Location:  43.3014°N, 96.8655°W
Report Text: KFSD 231656Z 31013KT 10SM -RA OVC041 04/02 A2955 RMK AO2 SLP015 P0003 T00390022
Loading
Personal Weather Stations






























Interactive Weather Map New forecast layout! Learn more

10-Day Weather Forecast

Advertisements
Track Severe Weather on mobile